Time;durP1;ratioP1;P1;durP2;ratioP2;P2;SDS_P1;SDS_P2;PMS_P1;PMS_P2;Temp;Humidity;BMP_temperature;BMP_pressure;BME280_temperature;BME280_humidity;BME280_pressure;Samples;Min_cycle;Max_cycle;Signal;HPM_P1;HPM_P2
2023/08/07 00:02:21;;;;;;;;;;;16.30;99.90;;;;;;5012988;28;19912;-68
2023/08/07 00:04:47;;;;;;;;;;;16.70;99.90;;;;;;4994969;28;20283;-68
2023/08/07 00:07:14;;;;;;;;;;;17.10;99.90;;;;;;5012294;28;20390;-67
2023/08/07 00:09:40;;;;;;;;;;;17.20;99.90;;;;;;5012441;28;19924;-67
2023/08/07 00:12:07;;;;;;;;;;;17.00;99.90;;;;;;5016035;28;19909;-67
2023/08/07 00:14:34;;;;;;;;;;;16.90;99.90;;;;;;5015840;28;24078;-67
2023/08/07 00:17:00;;;;;;;;;;;16.80;99.90;;;;;;5015899;28;19913;-67
2023/08/07 00:19:27;;;;;;;;;;;17.00;99.90;;;;;;5013383;28;19910;-67
2023/08/07 00:21:54;;;;;;;;;;;17.00;99.90;;;;;;5016483;28;20069;-67
2023/08/07 00:24:20;;;;;;;;;;;17.00;99.90;;;;;;5016117;28;19912;-68
2023/08/07 00:26:47;;;;;;;;;;;17.20;99.90;;;;;;5012632;28;24092;-66
2023/08/07 00:29:14;;;;;;;;;;;17.00;99.90;;;;;;5015709;28;19905;-66
2023/08/07 00:31:40;;;;;;;;;;;16.80;99.90;;;;;;5015983;28;19906;-67
2023/08/07 00:34:07;;;;;;;;;;;16.90;99.90;;;;;;5015906;28;19988;-68
2023/08/07 00:36:34;;;;;;;;;;;16.80;99.90;;;;;;5016234;28;20044;-68
2023/08/07 00:39:03;;;;;;;;;;;16.70;99.90;;;;;;5016278;28;19917;-67
2023/08/07 00:41:30;;;;;;;;;;;16.70;99.90;;;;;;5015982;28;20386;-67
2023/08/07 00:43:56;;;;;;;;;;;16.70;99.90;;;;;;5015973;28;20054;-67
2023/08/07 00:46:24;;;;;;;;;;;16.80;99.90;;;;;;5016130;28;19912;-67
2023/08/07 00:48:51;;;;;;;;;;;16.90;99.90;;;;;;5016039;28;20033;-67
2023/08/07 00:51:18;;;;;;;;;;;16.90;99.90;;;;;;5015238;28;19913;-66
2023/08/07 00:53:45;;;;;;;;;;;17.00;99.90;;;;;;5015871;28;24058;-67
2023/08/07 00:56:12;;;;;;;;;;;17.20;99.90;;;;;;5014811;28;19917;-67
2023/08/07 00:58:40;;;;;;;;;;;17.50;99.90;;;;;;5015940;28;24060;-67
2023/08/07 01:01:07;;;;;;;;;;;17.80;99.90;;;;;;5014189;28;19909;-66
2023/08/07 01:03:34;;;;;;;;;;;18.00;99.90;;;;;;5000894;28;20387;-67
2023/08/07 01:06:01;;;;;;;;;;;18.30;99.90;;;;;;5014827;28;24098;-67
2023/08/07 01:08:28;;;;;;;;;;;18.50;99.90;;;;;;5015718;28;19910;-67
2023/08/07 01:10:57;;;;;;;;;;;18.90;99.90;;;;;;5015561;28;24149;-67
2023/08/07 01:13:28;;;;;;;;;;;19.00;99.90;;;;;;4997777;28;24104;-68
2023/08/07 01:15:56;;;;;;;;;;;19.30;99.90;;;;;;5014676;28;24066;-69
2023/08/07 01:18:23;;;;;;;;;;;19.40;99.90;;;;;;4997479;28;24061;-70
2023/08/07 01:20:49;;;;;;;;;;;19.10;99.90;;;;;;5012638;28;24163;-68
2023/08/07 01:23:16;;;;;;;;;;;19.00;99.90;;;;;;5014040;28;20375;-68
2023/08/07 01:25:43;;;;;;;;;;;19.00;99.90;;;;;;5013835;28;20087;-69
2023/08/07 01:28:32;;;;;;;;;;;18.90;99.90;;;;;;5014734;28;25102;-69
2023/08/07 01:31:03;;;;;;;;;;;19.10;99.90;;;;;;5014609;28;19913;-70
2023/08/07 01:33:43;;;;;;;;;;;19.00;99.90;;;;;;5014677;28;19909;-70
2023/08/07 01:36:11;;;;;;;;;;;18.90;99.90;;;;;;5015052;28;19909;-69
2023/08/07 01:38:37;;;;;;;;;;;19.00;99.90;;;;;;5014820;28;19912;-69
2023/08/07 01:41:05;;;;;;;;;;;19.10;99.90;;;;;;5014389;28;19916;-69
2023/08/07 01:43:32;;;;;;;;;;;19.50;99.90;;;;;;5013775;28;19964;-70
2023/08/07 01:45:59;;;;;;;;;;;20.00;99.90;;;;;;5014591;28;20036;-71
2023/08/07 01:48:26;;;;;;;;;;;20.50;99.90;;;;;;5013802;28;25067;-69
2023/08/07 01:50:54;;;;;;;;;;;21.00;99.90;;;;;;4996956;28;20000;-69
2023/08/07 01:53:20;;;;;;;;;;;21.10;99.90;;;;;;5014909;28;19906;-70
2023/08/07 01:55:47;;;;;;;;;;;21.00;99.90;;;;;;5015033;28;20016;-69
2023/08/07 01:58:14;;;;;;;;;;;20.80;99.90;;;;;;5014482;28;19964;-69
2023/08/07 02:00:41;;;;;;;;;;;20.10;99.90;;;;;;4996586;28;19909;-69
2023/08/07 02:03:07;;;;;;;;;;;19.70;99.90;;;;;;5013599;28;24099;-69
2023/08/07 02:05:34;;;;;;;;;;;19.20;99.90;;;;;;5013840;28;19913;-69
2023/08/07 02:08:00;;;;;;;;;;;18.60;99.90;;;;;;5013813;28;20252;-68
2023/08/07 02:10:28;;;;;;;;;;;17.60;99.90;;;;;;5014462;28;20350;-68
2023/08/07 02:12:54;;;;;;;;;;;17.10;99.90;;;;;;5013803;28;19916;-68
2023/08/07 02:15:21;;;;;;;;;;;16.60;99.90;;;;;;5013872;28;24112;-69
2023/08/07 02:17:48;;;;;;;;;;;16.20;99.90;;;;;;5014082;28;19932;-69
2023/08/07 02:20:14;;;;;;;;;;;16.00;99.90;;;;;;5014392;28;19928;-71
2023/08/07 02:22:41;;;;;;;;;;;15.90;99.90;;;;;;5014321;28;19975;-70
2023/08/07 02:25:08;;;;;;;;;;;15.70;99.90;;;;;;5014096;28;24097;-69
2023/08/07 02:27:35;;;;;;;;;;;15.60;99.90;;;;;;5014207;28;19905;-71
2023/08/07 02:30:03;;;;;;;;;;;15.60;99.90;;;;;;5013672;28;19910;-70
2023/08/07 02:32:30;;;;;;;;;;;15.60;99.90;;;;;;5012782;28;19909;-69
2023/08/07 02:34:57;;;;;;;;;;;15.40;99.90;;;;;;5013375;28;19916;-69
2023/08/07 02:37:24;;;;;;;;;;;15.40;99.90;;;;;;5002459;28;19927;-71
2023/08/07 02:39:51;;;;;;;;;;;15.40;99.90;;;;;;5000615;28;19910;-69
2023/08/07 02:42:17;;;;;;;;;;;15.50;99.90;;;;;;5012012;28;19992;-70
2023/08/07 02:44:44;;;;;;;;;;;15.50;99.90;;;;;;5011521;28;20355;-69
2023/08/07 02:47:11;;;;;;;;;;;15.50;99.90;;;;;;4996274;28;24062;-70
2023/08/07 02:49:37;;;;;;;;;;;15.50;99.90;;;;;;5010965;28;20325;-70
2023/08/07 02:52:04;;;;;;;;;;;15.60;99.90;;;;;;5010286;28;24120;-69
2023/08/07 02:54:31;;;;;;;;;;;15.60;99.90;;;;;;5011720;28;24047;-70
2023/08/07 02:56:57;;;;;;;;;;;15.60;99.90;;;;;;5012017;28;19913;-71
2023/08/07 02:59:24;;;;;;;;;;;15.60;99.90;;;;;;5011080;28;19909;-70
2023/08/07 03:01:51;;;;;;;;;;;15.70;99.90;;;;;;4994312;28;20314;-71
2023/08/07 03:04:17;;;;;;;;;;;15.70;99.90;;;;;;5012106;28;19905;-73
2023/08/07 03:06:44;;;;;;;;;;;15.80;99.90;;;;;;5011390;28;24127;-71
2023/08/07 03:09:11;;;;;;;;;;;15.80;99.90;;;;;;5011259;28;19917;-73
2023/08/07 03:11:37;;;;;;;;;;;15.80;99.90;;;;;;5011454;28;20275;-69
2023/08/07 03:14:04;;;;;;;;;;;15.90;99.90;;;;;;5010707;28;19929;-70
2023/08/07 03:16:31;;;;;;;;;;;16.10;99.90;;;;;;5011390;28;19917;-71
2023/08/07 03:18:57;;;;;;;;;;;16.10;99.90;;;;;;5011151;28;19956;-71
2023/08/07 03:21:24;;;;;;;;;;;16.10;99.90;;;;;;5011143;28;24076;-69
2023/08/07 03:23:51;;;;;;;;;;;16.20;99.90;;;;;;5010823;28;24143;-70
2023/08/07 03:26:18;;;;;;;;;;;16.40;99.90;;;;;;5011347;28;19910;-70
2023/08/07 03:28:46;;;;;;;;;;;16.50;99.90;;;;;;5010723;28;19905;-71
2023/08/07 03:31:12;;;;;;;;;;;16.60;99.90;;;;;;5011880;28;20315;-69
2023/08/07 03:33:39;;;;;;;;;;;16.70;99.90;;;;;;4993206;28;19921;-70
2023/08/07 03:36:06;;;;;;;;;;;16.80;99.90;;;;;;5010551;28;19960;-71
2023/08/07 03:38:35;;;;;;;;;;;16.90;99.90;;;;;;5010664;28;25129;-71
2023/08/07 03:41:02;;;;;;;;;;;17.00;99.90;;;;;;5011263;28;20350;-69
2023/08/07 03:43:29;;;;;;;;;;;17.10;99.90;;;;;;5010602;28;25111;-69
2023/08/07 03:45:56;;;;;;;;;;;17.00;99.90;;;;;;5011164;28;19905;-70
2023/08/07 03:48:23;;;;;;;;;;;17.20;99.90;;;;;;4993623;28;24060;-71
2023/08/07 03:50:49;;;;;;;;;;;17.40;99.90;;;;;;5011560;28;24070;-71
2023/08/07 03:53:16;;;;;;;;;;;17.40;99.90;;;;;;5011135;28;24137;-71
2023/08/07 03:55:45;;;;;;;;;;;17.40;99.90;;;;;;5010763;28;20389;-70
2023/08/07 03:58:11;;;;;;;;;;;17.50;99.90;;;;;;4993584;28;19931;-70
2023/08/07 04:00:38;;;;;;;;;;;17.80;99.90;;;;;;5010427;28;24053;-70
2023/08/07 04:03:05;;;;;;;;;;;17.90;99.90;;;;;;5010860;28;19910;-72
2023/08/07 04:05:33;;;;;;;;;;;18.10;99.90;;;;;;5010591;28;19905;-70
2023/08/07 04:07:59;;;;;;;;;;;18.40;99.90;;;;;;4992417;28;20281;-70
2023/08/07 04:10:26;;;;;;;;;;;18.50;99.90;;;;;;4973485;28;19988;-70
2023/08/07 04:12:53;;;;;;;;;;;18.50;99.90;;;;;;4973175;28;24071;-70
2023/08/07 04:15:19;;;;;;;;;;;18.30;99.90;;;;;;4973495;28;25050;-70
2023/08/07 04:17:46;;;;;;;;;;;18.10;99.90;;;;;;4973372;28;24063;-70
2023/08/07 04:20:13;;;;;;;;;;;18.10;99.90;;;;;;4971908;28;19906;-70
2023/08/07 04:22:39;;;;;;;;;;;18.00;99.90;;;;;;4959314;28;25056;-69
2023/08/07 04:25:06;;;;;;;;;;;18.00;99.90;;;;;;4965351;28;24153;-70
2023/08/07 04:27:33;;;;;;;;;;;17.90;99.90;;;;;;4969469;28;20027;-71
2023/08/07 04:30:00;;;;;;;;;;;18.00;99.90;;;;;;4971306;28;19913;-70
2023/08/07 04:32:26;;;;;;;;;;;18.30;99.90;;;;;;4971165;28;24154;-70
2023/08/07 04:34:53;;;;;;;;;;;18.40;99.90;;;;;;4971505;28;25134;-70
2023/08/07 04:37:20;;;;;;;;;;;18.50;99.90;;;;;;4971487;28;20260;-71
2023/08/07 04:39:46;;;;;;;;;;;18.50;99.90;;;;;;4970938;28;24062;-69
2023/08/07 04:42:13;;;;;;;;;;;18.80;99.90;;;;;;4971742;28;19976;-69
2023/08/07 04:44:40;;;;;;;;;;;19.20;99.90;;;;;;4972048;28;19906;-70
2023/08/07 04:47:06;;;;;;;;;;;19.60;99.90;;;;;;4970603;28;20011;-71
2023/08/07 04:49:33;;;;;;;;;;;19.90;99.90;;;;;;4971570;28;20383;-70
2023/08/07 04:52:00;;;;;;;;;;;19.90;99.90;;;;;;4971487;28;19910;-72
2023/08/07 04:54:26;;;;;;;;;;;19.50;99.90;;;;;;4971017;28;19906;-70
2023/08/07 04:56:53;;;;;;;;;;;19.10;99.90;;;;;;4973587;28;19945;-72
2023/08/07 04:59:20;;;;;;;;;;;18.90;99.90;;;;;;4975214;28;19906;-71
2023/08/07 05:01:46;;;;;;;;;;;18.50;99.90;;;;;;4974568;28;24075;-73
2023/08/07 05:04:13;;;;;;;;;;;18.20;99.90;;;;;;4974973;28;20050;-72
2023/08/07 05:06:40;;;;;;;;;;;18.10;99.90;;;;;;4975096;28;19914;-71
2023/08/07 05:09:07;;;;;;;;;;;17.70;99.90;;;;;;4992515;28;25060;-70
2023/08/07 05:11:33;;;;;;;;;;;17.50;99.90;;;;;;5013804;28;19912;-70
2023/08/07 05:14:00;;;;;;;;;;;17.40;99.90;;;;;;5013982;28;19906;-72
2023/08/07 05:16:27;;;;;;;;;;;17.20;99.90;;;;;;5012877;28;19921;-70
2023/08/07 05:18:53;;;;;;;;;;;17.10;99.90;;;;;;5013825;28;19913;-72
2023/08/07 05:21:20;;;;;;;;;;;16.90;99.90;;;;;;5013591;28;20070;-70
2023/08/07 05:23:47;;;;;;;;;;;16.80;99.90;;;;;;5013371;28;19932;-70
2023/08/07 05:26:14;;;;;;;;;;;16.70;99.90;;;;;;5013338;28;20005;-71
2023/08/07 05:28:41;;;;;;;;;;;16.60;99.90;;;;;;5013576;28;25122;-71
2023/08/07 05:31:07;;;;;;;;;;;16.40;99.90;;;;;;5013818;28;24079;-74
2023/08/07 05:33:34;;;;;;;;;;;16.40;99.90;;;;;;4996087;28;20043;-72
2023/08/07 05:36:01;;;;;;;;;;;16.30;99.90;;;;;;5013486;28;20105;-71
2023/08/07 05:38:27;;;;;;;;;;;16.40;99.90;;;;;;5013547;28;24072;-70
2023/08/07 05:40:54;;;;;;;;;;;16.40;99.90;;;;;;5015873;28;24111;-71
2023/08/07 05:43:21;;;;;;;;;;;16.40;99.90;;;;;;4996023;28;19936;-70
2023/08/07 05:45:49;;;;;;;;;;;16.40;99.90;;;;;;5012317;28;19982;-70
2023/08/07 05:48:16;;;;;;;;;;;16.40;99.90;;;;;;5013271;28;19948;-70
2023/08/07 05:50:43;;;;;;;;;;;16.40;99.90;;;;;;5012926;28;19913;-71
2023/08/07 05:53:10;;;;;;;;;;;16.40;99.90;;;;;;5012276;28;19958;-72
2023/08/07 05:55:40;;;;;;;;;;;16.30;99.90;;;;;;5013096;28;19924;-71
2023/08/07 05:58:06;;;;;;;;;;;16.30;99.90;;;;;;5012873;28;19913;-73
2023/08/07 06:00:33;;;;;;;;;;;16.20;99.90;;;;;;5013040;28;19955;-71
2023/08/07 06:03:00;;;;;;;;;;;16.20;99.90;;;;;;5012251;28;24105;-70
2023/08/07 06:05:27;;;;;;;;;;;16.20;99.90;;;;;;4994683;28;24079;-71
2023/08/07 06:07:54;;;;;;;;;;;16.10;99.90;;;;;;5010902;28;19916;-70
2023/08/07 06:10:21;;;;;;;;;;;16.10;99.90;;;;;;4992351;28;19917;-69
2023/08/07 06:12:48;;;;;;;;;;;16.10;99.90;;;;;;4993099;28;24091;-71
2023/08/07 06:15:15;;;;;;;;;;;16.00;99.90;;;;;;4992434;28;24071;-68
2023/08/07 06:17:41;;;;;;;;;;;15.90;99.90;;;;;;4992236;28;19960;-71
2023/08/07 06:20:09;;;;;;;;;;;15.90;99.90;;;;;;4992523;28;19912;-68
2023/08/07 06:22:36;;;;;;;;;;;15.90;99.90;;;;;;4991964;28;19910;-69
2023/08/07 06:25:05;;;;;;;;;;;15.80;99.90;;;;;;4992524;28;19910;-69
2023/08/07 06:27:32;;;;;;;;;;;15.80;99.90;;;;;;4992582;28;19913;-69
2023/08/07 06:29:59;;;;;;;;;;;15.70;99.90;;;;;;4990513;28;20295;-68
2023/08/07 06:32:26;;;;;;;;;;;15.70;99.90;;;;;;4993023;28;19939;-69
2023/08/07 06:34:53;;;;;;;;;;;15.70;99.90;;;;;;4992777;28;20386;-69
2023/08/07 06:37:20;;;;;;;;;;;15.60;99.90;;;;;;4992082;28;19928;-70
2023/08/07 06:39:47;;;;;;;;;;;15.60;99.90;;;;;;4992787;28;19913;-69
2023/08/07 06:42:14;;;;;;;;;;;15.50;99.90;;;;;;4991920;28;20368;-68
2023/08/07 06:44:41;;;;;;;;;;;15.30;99.90;;;;;;4992968;28;19913;-70
2023/08/07 06:47:08;;;;;;;;;;;15.30;99.90;;;;;;4993375;28;19933;-70
2023/08/07 06:49:35;;;;;;;;;;;15.20;99.90;;;;;;4994683;28;19917;-71
2023/08/07 06:52:02;;;;;;;;;;;15.10;99.90;;;;;;4994848;28;19909;-70
2023/08/07 06:54:29;;;;;;;;;;;15.00;99.90;;;;;;4995250;28;19909;-70
2023/08/07 06:56:56;;;;;;;;;;;14.80;99.90;;;;;;4994857;28;25047;-68
2023/08/07 06:59:23;;;;;;;;;;;14.80;99.90;;;;;;4994444;28;19909;-69
2023/08/07 07:01:50;;;;;;;;;;;14.70;99.90;;;;;;4993911;28;19913;-69
2023/08/07 07:04:18;;;;;;;;;;;14.60;99.90;;;;;;4992468;28;19945;-69
2023/08/07 07:06:45;;;;;;;;;;;14.60;99.90;;;;;;4994777;28;19906;-69
2023/08/07 07:09:15;;;;;;;;;;;14.60;99.90;;;;;;5004059;28;20004;-68
2023/08/07 07:11:43;;;;;;;;;;;14.60;99.90;;;;;;5013806;28;19909;-69
2023/08/07 07:14:10;;;;;;;;;;;14.60;99.90;;;;;;5014993;28;20308;-69
2023/08/07 07:16:37;;;;;;;;;;;14.50;99.90;;;;;;5015171;28;19913;-70
2023/08/07 07:19:08;;;;;;;;;;;14.50;99.90;;;;;;5014270;28;19913;-69
2023/08/07 07:21:35;;;;;;;;;;;14.40;99.90;;;;;;5014138;28;19936;-69
2023/08/07 07:24:04;;;;;;;;;;;14.40;99.90;;;;;;5014497;28;19945;-70
2023/08/07 07:26:31;;;;;;;;;;;14.40;99.90;;;;;;5014873;28;24093;-70
2023/08/07 07:28:58;;;;;;;;;;;14.30;99.90;;;;;;5015097;28;20413;-69
2023/08/07 07:31:25;;;;;;;;;;;14.40;99.90;;;;;;5013897;28;19912;-69
2023/08/07 07:33:52;;;;;;;;;;;14.30;99.90;;;;;;4995138;28;19915;-69
2023/08/07 07:36:21;;;;;;;;;;;14.30;99.90;;;;;;5012889;28;24140;-68
2023/08/07 07:38:48;;;;;;;;;;;14.20;99.90;;;;;;5012940;28;19906;-69
2023/08/07 07:41:16;;;;;;;;;;;14.20;99.90;;;;;;5012742;28;19984;-68
2023/08/07 07:43:43;;;;;;;;;;;14.20;99.90;;;;;;5012921;28;19917;-69
2023/08/07 07:46:10;;;;;;;;;;;14.10;99.90;;;;;;5013082;28;19951;-70
2023/08/07 07:48:36;;;;;;;;;;;14.00;99.90;;;;;;5013164;28;24079;-71
2023/08/07 07:51:04;;;;;;;;;;;14.00;99.90;;;;;;5012992;28;19953;-70
2023/08/07 07:53:31;;;;;;;;;;;13.90;99.90;;;;;;5012176;28;20263;-69
2023/08/07 07:55:58;;;;;;;;;;;13.90;99.90;;;;;;5012892;28;19909;-69
2023/08/07 07:58:24;;;;;;;;;;;13.80;99.90;;;;;;5012775;28;24068;-68
2023/08/07 08:00:53;;;;;;;;;;;13.80;99.90;;;;;;5012511;28;24093;-70
2023/08/07 08:03:21;;;;;;;;;;;13.70;99.90;;;;;;4991624;28;20823;-70
2023/08/07 08:05:51;;;;;;;;;;;13.70;99.90;;;;;;5010996;28;24082;-70
2023/08/07 08:08:18;;;;;;;;;;;13.60;99.90;;;;;;5011137;28;19910;-69
2023/08/07 08:10:47;;;;;;;;;;;13.50;99.90;;;;;;5010605;28;19906;-69
2023/08/07 08:13:15;;;;;;;;;;;13.40;99.90;;;;;;5010593;28;19916;-68
2023/08/07 08:15:42;;;;;;;;;;;13.40;99.90;;;;;;5010139;28;19905;-70
2023/08/07 08:18:09;;;;;;;;;;;13.30;99.90;;;;;;5010807;28;19913;-70
2023/08/07 08:20:36;;;;;;;;;;;13.30;99.90;;;;;;5011240;28;19912;-69
2023/08/07 08:23:03;;;;;;;;;;;13.20;99.90;;;;;;5011012;28;24069;-69
2023/08/07 08:25:30;;;;;;;;;;;13.20;99.90;;;;;;5009757;28;20361;-70
2023/08/07 08:27:57;;;;;;;;;;;13.10;99.90;;;;;;5010871;28;19906;-70
2023/08/07 08:30:24;;;;;;;;;;;13.00;99.90;;;;;;5010951;28;19992;-70
2023/08/07 08:32:51;;;;;;;;;;;13.00;99.90;;;;;;5014289;28;19905;-70
2023/08/07 08:35:18;;;;;;;;;;;13.00;99.90;;;;;;5014808;28;19920;-70
2023/08/07 08:37:45;;;;;;;;;;;13.00;99.90;;;;;;4996943;28;25166;-69
2023/08/07 08:40:12;;;;;;;;;;;12.90;99.90;;;;;;5014043;28;19963;-70
2023/08/07 08:42:42;;;;;;;;;;;12.90;99.90;;;;;;5014918;28;24065;-69
2023/08/07 08:45:12;;;;;;;;;;;12.80;99.90;;;;;;5014418;28;25097;-69
2023/08/07 08:47:40;;;;;;;;;;;12.80;99.90;;;;;;5014015;28;20314;-68
2023/08/07 08:50:07;;;;;;;;;;;12.70;99.90;;;;;;5014382;28;20006;-70
2023/08/07 08:52:35;;;;;;;;;;;12.60;99.90;;;;;;5014754;28;19913;-70
2023/08/07 08:55:02;;;;;;;;;;;12.60;99.90;;;;;;5014282;28;19909;-70
2023/08/07 08:57:29;;;;;;;;;;;12.50;99.90;;;;;;5014803;28;19941;-70
2023/08/07 08:59:59;;;;;;;;;;;12.50;99.90;;;;;;4997276;28;20266;-69
2023/08/07 09:02:26;;;;;;;;;;;12.50;99.90;;;;;;5014172;28;20405;-69
2023/08/07 09:04:53;;;;;;;;;;;12.60;99.90;;;;;;5014285;28;19917;-68
2023/08/07 09:07:20;;;;;;;;;;;12.60;99.90;;;;;;5000055;28;20364;-70
2023/08/07 09:09:49;;;;;;;;;;;12.60;99.90;;;;;;4994873;28;19917;-70
2023/08/07 09:12:27;;;;;;;;;;;12.70;99.90;;;;;;5013324;28;19916;-69
2023/08/07 09:14:56;;;;;;;;;;;12.70;99.90;;;;;;5012808;28;19909;-69
2023/08/07 09:17:29;;;;;;;;;;;12.70;99.90;;;;;;5012487;28;19913;-71
2023/08/07 09:19:55;;;;;;;;;;;12.80;99.90;;;;;;5002477;28;19964;-69
2023/08/07 09:22:22;;;;;;;;;;;12.80;99.90;;;;;;5011989;28;20426;-68
2023/08/07 09:24:50;;;;;;;;;;;12.80;99.90;;;;;;5012590;28;20387;-70
2023/08/07 09:27:16;;;;;;;;;;;12.90;99.90;;;;;;5012388;28;20376;-69
2023/08/07 09:29:43;;;;;;;;;;;12.90;99.90;;;;;;5012373;28;19997;-69
2023/08/07 09:32:14;;;;;;;;;;;12.90;99.90;;;;;;5013875;28;19909;-69
2023/08/07 09:34:41;;;;;;;;;;;12.90;99.90;;;;;;5014497;28;19905;-68
2023/08/07 09:37:09;;;;;;;;;;;12.90;99.90;;;;;;4996199;28;19967;-70
2023/08/07 09:39:36;;;;;;;;;;;12.90;99.90;;;;;;5014182;28;19924;-70
2023/08/07 09:42:13;;;;;;;;;;;12.90;99.90;;;;;;5013675;28;19905;-71
2023/08/07 09:44:40;;;;;;;;;;;12.80;99.90;;;;;;5014191;28;19913;-72
2023/08/07 09:47:13;;;;;;;;;;;12.90;99.90;;;;;;5016022;28;19912;-69
2023/08/07 09:49:41;;;;;;;;;;;12.90;99.90;;;;;;4999013;28;24065;-68
2023/08/07 09:52:08;;;;;;;;;;;12.90;99.90;;;;;;5013899;28;19906;-69
2023/08/07 09:54:36;;;;;;;;;;;12.90;99.90;;;;;;5014246;28;20432;-70
2023/08/07 09:57:03;;;;;;;;;;;12.90;99.90;;;;;;4996263;28;20274;-69
2023/08/07 09:59:31;;;;;;;;;;;12.90;99.90;;;;;;4996541;28;20003;-69
2023/08/07 10:01:59;;;;;;;;;;;12.90;99.90;;;;;;5014761;28;19912;-68
2023/08/07 10:04:26;;;;;;;;;;;12.90;99.90;;;;;;5013638;28;19906;-70
2023/08/07 10:06:53;;;;;;;;;;;12.90;99.90;;;;;;5013812;28;25060;-70
2023/08/07 10:09:22;;;;;;;;;;;12.90;99.90;;;;;;4846584;28;4354317;-69
2023/08/07 10:11:51;;;;;;;;;;;12.90;99.90;;;;;;5014599;28;25137;-70
2023/08/07 10:14:19;;;;;;;;;;;13.00;99.90;;;;;;5015140;28;24082;-70
2023/08/07 10:16:46;;;;;;;;;;;13.00;99.90;;;;;;5014350;28;19920;-70
2023/08/07 10:19:13;;;;;;;;;;;13.00;99.90;;;;;;5014498;28;24064;-70
2023/08/07 10:21:40;;;;;;;;;;;13.00;99.90;;;;;;5014468;28;20274;-69
2023/08/07 10:24:08;;;;;;;;;;;13.00;99.90;;;;;;5014814;28;19912;-70
2023/08/07 10:26:36;;;;;;;;;;;13.00;99.90;;;;;;4996471;28;20378;-69
2023/08/07 10:29:04;;;;;;;;;;;13.00;99.90;;;;;;5014420;28;20351;-69
2023/08/07 10:31:32;;;;;;;;;;;13.00;99.90;;;;;;5013780;28;19978;-69
2023/08/07 10:33:59;;;;;;;;;;;13.00;99.90;;;;;;5013835;28;19911;-69
2023/08/07 10:36:33;;;;;;;;;;;13.10;99.90;;;;;;5013626;28;19919;-68
2023/08/07 10:39:08;;;;;;;;;;;13.10;99.90;;;;;;5014034;28;20003;-69
2023/08/07 10:41:42;;;;;;;;;;;13.10;99.90;;;;;;5013846;28;19999;-70
2023/08/07 10:44:22;;;;;;;;;;;13.10;99.90;;;;;;5013759;28;19927;-69
2023/08/07 10:46:50;;;;;;;;;;;13.10;99.90;;;;;;5013526;28;19984;-70
2023/08/07 10:49:46;;;;;;;;;;;13.10;99.90;;;;;;5013615;28;19961;-70
2023/08/07 10:52:17;;;;;;;;;;;13.00;99.90;;;;;;5004809;28;20387;-70
2023/08/07 10:54:48;;;;;;;;;;;13.00;99.90;;;;;;5013387;28;19958;-70
2023/08/07 10:57:15;;;;;;;;;;;13.00;99.90;;;;;;5013831;28;19913;-71
2023/08/07 10:59:49;;;;;;;;;;;13.00;99.90;;;;;;5013425;28;19913;-70
2023/08/07 11:02:26;;;;;;;;;;;13.00;99.90;;;;;;5012897;28;19920;-70
2023/08/07 11:04:53;;;;;;;;;;;13.00;99.90;;;;;;5013316;28;19944;-69
2023/08/07 11:07:25;;;;;;;;;;;13.00;99.90;;;;;;5013277;28;19909;-69
2023/08/07 11:09:52;;;;;;;;;;;12.90;99.90;;;;;;5013045;28;19925;-69
2023/08/07 11:12:19;;;;;;;;;;;12.90;99.90;;;;;;5013520;28;24107;-70
2023/08/07 11:14:46;;;;;;;;;;;12.80;99.90;;;;;;5013434;28;19905;-70
2023/08/07 11:17:13;;;;;;;;;;;12.80;99.90;;;;;;5012857;28;20342;-70
2023/08/07 11:19:40;;;;;;;;;;;12.70;99.90;;;;;;5013141;28;20421;-69
2023/08/07 11:22:07;;;;;;;;;;;12.70;99.90;;;;;;5013338;28;19906;-69
2023/08/07 11:24:34;;;;;;;;;;;12.70;99.90;;;;;;5012801;28;19936;-69
2023/08/07 11:27:01;;;;;;;;;;;12.60;99.90;;;;;;5012918;28;20351;-69
2023/08/07 11:29:28;;;;;;;;;;;12.60;99.90;;;;;;5013035;28;19992;-69
2023/08/07 11:31:55;;;;;;;;;;;12.60;99.90;;;;;;5012816;28;19909;-69
2023/08/07 11:34:22;;;;;;;;;;;12.60;99.90;;;;;;5013009;28;20363;-69
2023/08/07 11:36:49;;;;;;;;;;;12.60;99.90;;;;;;5012916;28;19948;-69
2023/08/07 11:39:17;;;;;;;;;;;12.50;99.90;;;;;;5012772;28;20348;-70
2023/08/07 11:41:44;;;;;;;;;;;12.50;99.90;;;;;;5013056;28;19951;-69
2023/08/07 11:44:11;;;;;;;;;;;12.50;99.90;;;;;;5012654;28;19909;-69
2023/08/07 11:46:38;;;;;;;;;;;12.50;99.90;;;;;;5012568;28;19940;-70
2023/08/07 11:49:05;;;;;;;;;;;12.50;99.90;;;;;;5013013;28;19906;-69
2023/08/07 11:51:32;;;;;;;;;;;12.50;99.90;;;;;;5012863;28;19905;-68
2023/08/07 11:53:59;;;;;;;;;;;12.50;99.90;;;;;;5013043;28;20276;-69
2023/08/07 11:56:26;;;;;;;;;;;12.60;99.90;;;;;;5013203;28;19909;-70
2023/08/07 11:58:53;;;;;;;;;;;12.60;99.90;;;;;;5012870;28;24122;-71
2023/08/07 12:01:24;;;;;;;;;;;12.60;99.90;;;;;;5013127;28;24086;-70
2023/08/07 12:03:57;;;;;;;;;;;12.60;99.90;;;;;;4995038;28;20041;-69
2023/08/07 12:06:25;;;;;;;;;;;12.70;99.90;;;;;;5011607;28;19921;-69
2023/08/07 12:08:56;;;;;;;;;;;12.70;99.90;;;;;;5012526;28;19917;-69
2023/08/07 12:11:23;;;;;;;;;;;12.80;99.90;;;;;;5012793;28;19945;-69
2023/08/07 12:13:51;;;;;;;;;;;12.80;99.90;;;;;;5012366;28;24069;-70
2023/08/07 12:16:18;;;;;;;;;;;12.80;99.90;;;;;;5012140;28;19909;-70
2023/08/07 12:18:48;;;;;;;;;;;12.80;99.90;;;;;;5012617;28;19952;-70
2023/08/07 12:21:16;;;;;;;;;;;12.80;99.90;;;;;;4994796;28;19944;-70
2023/08/07 12:23:44;;;;;;;;;;;12.80;99.90;;;;;;5012453;28;19933;-69
2023/08/07 12:26:11;;;;;;;;;;;12.80;99.90;;;;;;5012494;28;19906;-69
2023/08/07 12:28:38;;;;;;;;;;;12.80;99.90;;;;;;5013531;28;24071;-70
2023/08/07 12:31:05;;;;;;;;;;;12.70;99.90;;;;;;5013411;28;19959;-70
2023/08/07 12:33:33;;;;;;;;;;;12.70;99.90;;;;;;4994871;28;24071;-70
2023/08/07 12:36:01;;;;;;;;;;;12.70;99.90;;;;;;5012082;28;19999;-69
2023/08/07 12:38:28;;;;;;;;;;;12.60;99.90;;;;;;5012432;28;19984;-69
2023/08/07 12:40:56;;;;;;;;;;;12.60;99.90;;;;;;5012343;28;19912;-70
2023/08/07 12:43:22;;;;;;;;;;;12.60;99.90;;;;;;4994712;28;20275;-70
2023/08/07 12:45:49;;;;;;;;;;;12.60;99.90;;;;;;5012276;28;19937;-69
2023/08/07 12:48:18;;;;;;;;;;;12.60;99.90;;;;;;5012034;28;24140;-68
2023/08/07 12:50:45;;;;;;;;;;;12.60;99.90;;;;;;5012237;28;19913;-69
2023/08/07 12:53:12;;;;;;;;;;;12.60;99.90;;;;;;5012336;28;19912;-69
2023/08/07 12:55:38;;;;;;;;;;;12.60;99.90;;;;;;5012174;28;20438;-69
2023/08/07 12:58:05;;;;;;;;;;;12.60;99.90;;;;;;5012087;28;24079;-69
2023/08/07 13:00:32;;;;;;;;;;;12.60;99.90;;;;;;5011738;28;20323;-70
2023/08/07 13:02:59;;;;;;;;;;;12.60;99.90;;;;;;5011728;28;24074;-69
2023/08/07 13:05:26;;;;;;;;;;;12.60;99.90;;;;;;5011696;28;24089;-70
2023/08/07 13:07:58;;;;;;;;;;;12.60;99.90;;;;;;5011988;28;19909;-70
2023/08/07 13:10:28;;;;;;;;;;;12.60;99.90;;;;;;5011029;28;20418;-70
2023/08/07 13:12:55;;;;;;;;;;;12.60;99.90;;;;;;5010565;28;20375;-71
2023/08/07 13:15:22;;;;;;;;;;;12.60;99.90;;;;;;4993779;28;19952;-71
2023/08/07 13:17:48;;;;;;;;;;;12.60;99.90;;;;;;5013550;28;20424;-68
2023/08/07 13:20:15;;;;;;;;;;;12.60;99.90;;;;;;5015274;28;19909;-70
2023/08/07 13:22:43;;;;;;;;;;;12.60;99.90;;;;;;5014993;28;20286;-70
2023/08/07 13:25:11;;;;;;;;;;;12.60;99.90;;;;;;5015461;28;19976;-70
2023/08/07 13:27:38;;;;;;;;;;;12.60;99.90;;;;;;5014859;28;19932;-70
2023/08/07 13:30:05;;;;;;;;;;;12.50;99.90;;;;;;5015254;28;19909;-70
2023/08/07 13:32:32;;;;;;;;;;;12.50;99.90;;;;;;5014882;28;24102;-71
2023/08/07 13:34:59;;;;;;;;;;;12.50;99.90;;;;;;5014305;28;19913;-69
2023/08/07 13:37:26;;;;;;;;;;;12.40;99.90;;;;;;5014274;28;20390;-69
2023/08/07 13:39:54;;;;;;;;;;;12.40;99.90;;;;;;5014923;28;19920;-70
2023/08/07 13:42:21;;;;;;;;;;;12.40;99.90;;;;;;5009637;28;19974;-70
2023/08/07 13:44:47;;;;;;;;;;;12.40;99.90;;;;;;5015088;28;19910;-70
2023/08/07 13:47:17;;;;;;;;;;;12.40;99.90;;;;;;5014720;28;19957;-70
2023/08/07 13:49:44;;;;;;;;;;;12.30;99.90;;;;;;5015058;28;19909;-70
2023/08/07 13:52:11;;;;;;;;;;;12.30;99.90;;;;;;5014166;28;19940;-69
2023/08/07 13:54:38;;;;;;;;;;;12.20;99.90;;;;;;5015228;28;19906;-69
2023/08/07 13:57:05;;;;;;;;;;;12.20;99.90;;;;;;4996449;28;24144;-69
2023/08/07 13:59:32;;;;;;;;;;;12.10;99.90;;;;;;5014873;28;19909;-70
2023/08/07 14:01:59;;;;;;;;;;;12.10;99.90;;;;;;4996463;28;20299;-68
2023/08/07 14:04:26;;;;;;;;;;;12.00;99.90;;;;;;5014431;28;19910;-69
2023/08/07 14:06:53;;;;;;;;;;;12.00;99.90;;;;;;5014127;28;19914;-69
2023/08/07 14:09:21;;;;;;;;;;;12.00;99.90;;;;;;5014030;28;25070;-69
2023/08/07 14:11:49;;;;;;;;;;;12.00;99.90;;;;;;5014551;28;19909;-69
2023/08/07 14:14:16;;;;;;;;;;;12.00;99.90;;;;;;5014106;28;20389;-69
2023/08/07 14:16:42;;;;;;;;;;;12.00;99.90;;;;;;5013777;28;19940;-69
2023/08/07 14:19:09;;;;;;;;;;;11.90;99.90;;;;;;5014610;28;24482;-70